Time;durP1;ratioP1;P1;durP2;ratioP2;P2;SDS_P1;SDS_P2;PMS_P1;PMS_P2;Temp;Humidity;BMP_temperature;BMP_pressure;BME280_temperature;BME280_humidity;BME280_pressure;Samples;Min_cycle;Max_cycle;Signal;HPM_P1;HPM_P2
2024/02/24 00:01:25;;;;;;;6.43;1.98;;;6.20;99.90;;;;;;4929123;29;20498;-74
2024/02/24 00:03:51;;;;;;;5.10;1.70;;;6.20;99.90;;;;;;4916243;29;20036;-74
2024/02/24 00:06:17;;;;;;;5.55;2.25;;;6.10;99.90;;;;;;4914463;29;20550;-75
2024/02/24 00:08:43;;;;;;;6.80;1.60;;;6.10;99.90;;;;;;4921532;29;20063;-76
2024/02/24 00:11:09;;;;;;;5.57;2.05;;;6.00;99.90;;;;;;4920934;29;20188;-74
2024/02/24 00:13:34;;;;;;;4.10;1.98;;;6.00;99.90;;;;;;4914420;29;20387;-75
2024/02/24 00:16:04;;;;;;;4.72;1.45;;;6.00;99.90;;;;;;4919327;29;20479;-74
2024/02/24 00:18:29;;;;;;;3.38;1.83;;;6.00;99.90;;;;;;4930428;29;20016;-74
2024/02/24 00:20:55;;;;;;;5.22;1.70;;;5.90;99.90;;;;;;4933378;29;20066;-74
2024/02/24 00:23:22;;;;;;;5.30;1.48;;;5.90;99.90;;;;;;4916647;29;20048;-75
2024/02/24 00:25:48;;;;;;;4.60;1.83;;;5.80;99.90;;;;;;4921583;29;20032;-74
2024/02/24 00:28:13;;;;;;;6.25;2.08;;;5.80;99.90;;;;;;4922288;29;20418;-75
2024/02/24 00:30:39;;;;;;;3.28;1.60;;;5.80;99.90;;;;;;4915649;29;20510;-74
2024/02/24 00:33:05;;;;;;;6.53;2.13;;;5.70;99.90;;;;;;4928213;29;20082;-74
2024/02/24 00:35:31;;;;;;;5.20;1.60;;;5.70;99.90;;;;;;4925541;29;20414;-74
2024/02/24 00:37:57;;;;;;;3.17;1.70;;;5.70;99.90;;;;;;4918175;29;20034;-75
2024/02/24 00:40:23;;;;;;;5.38;1.60;;;5.70;99.90;;;;;;4915378;29;20102;-75
2024/02/24 00:42:49;;;;;;;4.70;1.73;;;5.60;99.90;;;;;;4921285;29;20036;-74
2024/02/24 00:45:15;;;;;;;4.03;1.63;;;5.60;99.90;;;;;;4922433;29;20178;-75
2024/02/24 00:47:40;;;;;;;4.25;1.83;;;5.60;99.90;;;;;;4913879;29;20027;-75
2024/02/24 00:50:07;;;;;;;4.13;1.85;;;5.60;99.90;;;;;;4916906;29;20043;-75
2024/02/24 00:52:33;;;;;;;3.20;1.55;;;5.60;99.90;;;;;;4928841;29;20019;-75
2024/02/24 00:55:00;;;;;;;2.95;1.70;;;5.60;99.90;;;;;;4928920;29;20454;-75
2024/02/24 00:57:25;;;;;;;3.78;1.80;;;5.60;99.90;;;;;;4910942;29;20490;-75
2024/02/24 00:59:51;;;;;;;3.72;1.80;;;5.50;99.90;;;;;;4928341;29;20035;-75
2024/02/24 01:02:17;;;;;;;5.57;1.70;;;5.50;99.90;;;;;;4915592;29;20035;-75
2024/02/24 01:04:43;;;;;;;3.45;1.40;;;5.50;99.90;;;;;;4924047;29;20042;-75
2024/02/24 01:07:12;;;;;;;3.22;1.67;;;5.50;99.90;;;;;;4928590;29;20115;-75
2024/02/24 01:09:38;;;;;;;7.00;1.88;;;5.40;99.90;;;;;;4927996;29;20141;-75
2024/02/24 01:12:04;;;;;;;3.67;1.60;;;5.40;99.90;;;;;;4922031;29;20031;-75
2024/02/24 01:14:33;;;;;;;4.18;1.75;;;5.40;99.90;;;;;;4921167;29;20016;-75
2024/02/24 01:16:59;;;;;;;3.75;1.40;;;5.40;99.90;;;;;;4915056;29;20027;-75
2024/02/24 01:19:25;;;;;;;4.15;1.90;;;5.40;99.90;;;;;;4917672;29;20021;-75
2024/02/24 01:21:51;;;;;;;6.32;1.88;;;5.40;99.90;;;;;;4922672;29;20063;-75
2024/02/24 01:24:17;;;;;;;5.88;1.80;;;5.40;99.90;;;;;;4922197;29;20175;-75
2024/02/24 01:26:42;;;;;;;3.95;1.77;;;5.40;99.90;;;;;;4922091;29;20025;-75
2024/02/24 01:29:08;;;;;;;3.75;1.63;;;5.30;99.90;;;;;;4924893;29;20036;-75
2024/02/24 01:31:34;;;;;;;2.63;1.58;;;5.30;99.90;;;;;;4924881;29;20046;-75
2024/02/24 01:33:59;;;;;;;4.15;1.80;;;5.30;99.90;;;;;;4930739;29;20028;-74
2024/02/24 01:36:25;;;;;;;3.50;1.65;;;5.30;99.90;;;;;;4931663;29;20458;-74
2024/02/24 01:38:53;;;;;;;3.15;1.58;;;5.20;99.90;;;;;;4917680;29;20613;-73
2024/02/24 01:41:19;;;;;;;4.13;1.90;;;5.20;99.90;;;;;;4921489;29;20052;-73
2024/02/24 01:43:45;;;;;;;3.13;1.77;;;5.20;99.90;;;;;;4925469;29;20107;-72
2024/02/24 01:46:15;;;;;;;3.97;1.80;;;5.20;99.90;;;;;;4917946;29;20024;-80
2024/02/24 01:48:41;;;;;;;5.22;1.88;;;5.20;99.90;;;;;;4931413;29;20016;-75
2024/02/24 01:51:08;;;;;;;4.40;1.95;;;5.10;99.90;;;;;;4925815;29;20024;-75
2024/02/24 01:53:36;;;;;;;6.57;1.80;;;5.10;99.90;;;;;;4936860;29;20607;-74
2024/02/24 01:56:06;;;;;;;2.92;1.60;;;5.20;99.90;;;;;;4936690;29;20059;-74
2024/02/24 01:58:37;;;;;;;4.80;1.58;;;5.20;99.90;;;;;;4930929;29;20498;-74
2024/02/24 02:01:05;;;;;;;3.03;1.50;;;5.20;99.90;;;;;;4926433;29;20021;-75
2024/02/24 02:03:31;;;;;;;2.70;1.60;;;5.20;99.90;;;;;;4904044;29;20035;-75
2024/02/24 02:05:57;;;;;;;3.15;1.73;;;5.30;99.90;;;;;;4910129;29;20028;-74
2024/02/24 02:08:23;;;;;;;3.95;1.48;;;5.30;99.90;;;;;;4916977;29;20024;-75
2024/02/24 02:10:55;;;;;;;3.92;1.50;;;5.40;99.90;;;;;;4930643;29;20036;-73
2024/02/24 02:13:21;;;;;;;2.63;1.60;;;5.40;99.90;;;;;;4930347;29;20023;-75
2024/02/24 02:15:52;;;;;;;3.17;1.70;;;5.40;99.90;;;;;;4921968;29;20031;-75
2024/02/24 02:18:19;;;;;;;4.25;1.70;;;5.40;99.90;;;;;;4924740;29;20034;-75
2024/02/24 02:20:46;;;;;;;2.60;1.40;;;5.50;99.90;;;;;;4902079;29;20131;-74
2024/02/24 02:23:14;;;;;;;3.55;1.95;;;5.50;99.90;;;;;;4916775;29;20521;-74
2024/02/24 02:25:40;;;;;;;5.35;1.67;;;5.60;99.90;;;;;;4925645;29;20038;-74
2024/02/24 02:28:05;;;;;;;4.05;1.80;;;5.60;99.90;;;;;;4927880;29;20027;-74
2024/02/24 02:30:33;;;;;;;3.70;1.60;;;5.60;99.90;;;;;;4918912;29;20134;-74
2024/02/24 02:32:58;;;;;;;4.70;1.77;;;5.70;99.90;;;;;;4930244;29;20118;-74
2024/02/24 02:35:24;;;;;;;3.00;1.30;;;5.70;99.90;;;;;;4929625;29;20484;-74
2024/02/24 02:37:50;;;;;;;5.20;1.60;;;5.70;99.90;;;;;;4922296;29;20475;-73
2024/02/24 02:40:16;;;;;;;4.03;1.40;;;5.80;99.90;;;;;;4924399;29;20020;-74
2024/02/24 02:42:41;;;;;;;5.82;1.60;;;5.80;99.90;;;;;;4917410;29;20453;-74
2024/02/24 02:45:07;;;;;;;3.22;1.30;;;5.80;99.90;;;;;;4930087;29;20050;-74
2024/02/24 02:47:33;;;;;;;5.13;1.50;;;5.80;99.90;;;;;;4924616;29;20087;-74
2024/02/24 02:49:59;;;;;;;3.75;1.50;;;5.80;99.90;;;;;;4914720;29;20036;-74
2024/02/24 02:52:25;;;;;;;8.07;1.42;;;5.80;99.90;;;;;;4917669;29;20032;-72
2024/02/24 02:54:50;;;;;;;3.13;1.60;;;5.80;99.90;;;;;;4948951;29;20038;-72
2024/02/24 02:57:17;;;;;;;1.83;1.17;;;5.80;99.90;;;;;;4949017;29;20477;-74
2024/02/24 02:59:43;;;;;;;2.33;1.20;;;5.80;99.90;;;;;;4948525;29;20038;-72
2024/02/24 03:02:08;;;;;;;2.88;1.27;;;5.80;99.90;;;;;;4939489;29;20023;-74
2024/02/24 03:04:34;;;;;;;2.35;1.23;;;5.80;99.90;;;;;;4951735;29;20037;-74
2024/02/24 03:07:00;;;;;;;3.33;1.40;;;5.80;99.90;;;;;;4943216;29;20485;-74
2024/02/24 03:09:26;;;;;;;3.63;1.25;;;5.80;99.90;;;;;;4941868;29;20042;-73
2024/02/24 03:11:51;;;;;;;5.30;1.70;;;5.80;99.90;;;;;;4935216;29;20027;-73
2024/02/24 03:14:17;;;;;;;3.15;1.20;;;5.80;99.90;;;;;;4947156;29;20091;-73
2024/02/24 03:16:43;;;;;;;3.17;1.20;;;5.80;99.90;;;;;;4931269;29;20117;-73
2024/02/24 03:19:09;;;;;;;3.65;1.45;;;5.80;99.90;;;;;;4939952;29;20020;-73
2024/02/24 03:21:35;;;;;;;2.30;1.27;;;5.80;99.90;;;;;;4943159;29;20105;-72
2024/02/24 03:24:01;;;;;;;2.17;1.35;;;5.80;99.90;;;;;;4947853;29;20114;-73
2024/02/24 03:26:28;;;;;;;2.38;1.40;;;5.80;99.90;;;;;;4949026;29;20062;-73
2024/02/24 03:28:53;;;;;;;3.38;1.52;;;5.80;99.90;;;;;;4917327;29;20035;-74
2024/02/24 03:31:20;;;;;;;1.60;1.02;;;5.80;99.90;;;;;;4938036;29;20624;-73
2024/02/24 03:33:45;;;;;;;2.47;1.48;;;5.80;99.90;;;;;;4941988;29;20084;-74
2024/02/24 03:36:13;;;;;;;1.85;1.48;;;5.80;99.90;;;;;;4948711;29;20031;-73
2024/02/24 03:38:39;;;;;;;2.88;1.50;;;5.80;99.90;;;;;;4921020;29;20561;-74
2024/02/24 03:41:05;;;;;;;5.10;1.42;;;5.80;99.90;;;;;;4941422;29;20039;-74
2024/02/24 03:43:30;;;;;;;1.92;1.30;;;5.80;99.90;;;;;;4946594;29;20455;-73
2024/02/24 03:45:56;;;;;;;3.15;1.42;;;5.70;99.90;;;;;;4935118;29;20569;-73
2024/02/24 03:48:22;;;;;;;4.15;1.42;;;5.70;99.90;;;;;;4935802;28;20494;-74
2024/02/24 03:50:48;;;;;;;3.95;1.35;;;5.70;99.90;;;;;;4924728;29;20463;-73
2024/02/24 03:53:14;;;;;;;2.92;1.40;;;5.80;99.90;;;;;;4929676;29;20131;-73
2024/02/24 03:55:40;;;;;;;2.63;1.70;;;5.80;99.90;;;;;;4938549;29;20501;-73
2024/02/24 03:58:06;;;;;;;1.85;1.23;;;5.80;99.90;;;;;;4947963;29;20031;-74
2024/02/24 04:00:34;;;;;;;2.35;1.60;;;5.80;99.90;;;;;;4947657;29;20039;-74
2024/02/24 04:03:01;;;;;;;2.65;1.63;;;5.80;99.90;;;;;;4948101;29;20046;-73
2024/02/24 04:05:27;;;;;;;4.10;1.60;;;5.80;99.90;;;;;;4947612;29;20023;-73
2024/02/24 04:07:53;;;;;;;4.13;1.70;;;5.80;99.90;;;;;;4952361;29;20039;-73
2024/02/24 04:10:19;;;;;;;3.05;1.70;;;5.80;99.90;;;;;;4937486;29;20019;-73
2024/02/24 04:12:44;;;;;;;2.55;1.58;;;5.80;99.90;;;;;;4947538;29;20035;-73
2024/02/24 04:15:13;;;;;;;3.70;1.60;;;5.70;99.90;;;;;;4932933;29;20027;-73
2024/02/24 04:17:39;;;;;;;2.95;1.42;;;5.80;99.90;;;;;;4930735;29;20082;-73
2024/02/24 04:20:05;;;;;;;3.65;1.80;;;5.70;99.90;;;;;;4945095;29;20042;-73
2024/02/24 04:22:31;;;;;;;2.70;1.48;;;5.70;99.90;;;;;;4936786;29;20552;-74
2024/02/24 04:24:57;;;;;;;2.78;1.60;;;5.70;99.90;;;;;;4932360;29;20043;-73
2024/02/24 04:27:22;;;;;;;2.83;1.27;;;5.70;99.90;;;;;;4942131;29;20019;-73
2024/02/24 04:29:48;;;;;;;3.20;1.70;;;5.70;99.90;;;;;;4940056;29;20027;-74
2024/02/24 04:32:14;;;;;;;2.80;1.48;;;5.70;99.90;;;;;;4947961;29;20117;-74
2024/02/24 04:34:39;;;;;;;3.97;1.80;;;5.60;99.90;;;;;;4947543;29;20023;-74
2024/02/24 04:37:05;;;;;;;3.20;1.70;;;5.60;99.90;;;;;;4934529;29;20027;-73
2024/02/24 04:39:30;;;;;;;5.43;1.75;;;5.60;99.90;;;;;;4939758;29;20426;-73
2024/02/24 04:41:56;;;;;;;3.25;1.45;;;5.60;99.90;;;;;;4941702;29;20039;-73
2024/02/24 04:44:22;;;;;;;5.20;1.60;;;5.70;99.90;;;;;;4934297;29;20070;-73
2024/02/24 04:46:47;;;;;;;2.22;1.42;;;5.60;99.90;;;;;;4947778;29;20039;-73
2024/02/24 04:49:13;;;;;;;3.50;1.67;;;5.70;99.90;;;;;;4947490;29;20026;-72
2024/02/24 04:51:39;;;;;;;3.65;1.80;;;5.70;99.90;;;;;;4947520;29;20453;-74
2024/02/24 04:54:05;;;;;;;2.42;1.40;;;5.70;99.90;;;;;;4944550;29;20058;-73
2024/02/24 04:56:30;;;;;;;3.83;1.90;;;5.70;99.90;;;;;;4936431;29;20020;-73
2024/02/24 04:58:56;;;;;;;3.72;1.90;;;5.80;99.90;;;;;;4930693;29;20027;-73
2024/02/24 05:01:22;;;;;;;4.10;1.80;;;5.80;99.90;;;;;;4945608;29;20460;-73
2024/02/24 05:03:48;;;;;;;2.63;1.75;;;5.80;99.90;;;;;;4942999;29;20050;-74
2024/02/24 05:06:13;;;;;;;4.80;2.00;;;5.80;99.90;;;;;;4946627;29;20337;-73
2024/02/24 05:08:39;;;;;;;3.42;1.77;;;5.80;99.90;;;;;;4942533;29;20021;-74
2024/02/24 05:11:05;;;;;;;3.42;1.90;;;5.80;99.90;;;;;;4953581;29;20563;-74
2024/02/24 05:13:30;;;;;;;4.05;2.10;;;5.80;99.90;;;;;;4947206;29;20133;-73
2024/02/24 05:15:56;;;;;;;3.38;1.60;;;5.80;99.90;;;;;;4941437;29;20016;-74
2024/02/24 05:18:22;;;;;;;4.25;1.85;;;5.90;99.90;;;;;;4920468;29;20413;-74
2024/02/24 05:20:47;;;;;;;2.97;1.90;;;5.90;99.90;;;;;;4942637;29;20115;-73
2024/02/24 05:23:13;;;;;;;3.63;1.85;;;5.90;99.90;;;;;;4945388;29;20110;-74
2024/02/24 05:25:39;;;;;;;2.58;1.88;;;5.90;99.90;;;;;;4936992;29;20485;-73
2024/02/24 05:28:05;;;;;;;4.18;2.30;;;5.90;99.90;;;;;;4938975;29;20042;-73
2024/02/24 05:30:30;;;;;;;2.92;1.60;;;6.00;99.90;;;;;;4944581;29;20016;-74
2024/02/24 05:32:56;;;;;;;2.83;1.65;;;6.00;99.90;;;;;;4941440;29;20031;-73
2024/02/24 05:35:22;;;;;;;2.97;1.83;;;6.00;99.90;;;;;;4936628;29;20051;-73
2024/02/24 05:37:47;;;;;;;4.20;2.25;;;6.00;99.90;;;;;;4943238;29;20020;-73
2024/02/24 05:40:15;;;;;;;3.28;2.00;;;6.00;99.90;;;;;;4949144;29;20056;-74
2024/02/24 05:42:41;;;;;;;2.72;1.75;;;6.00;99.90;;;;;;4952914;29;20031;-74
2024/02/24 05:45:07;;;;;;;3.13;1.90;;;6.00;99.90;;;;;;4950019;29;20110;-73
2024/02/24 05:47:33;;;;;;;3.60;1.90;;;6.00;99.90;;;;;;4936872;29;20023;-73
2024/02/24 05:49:59;;;;;;;4.85;2.08;;;6.10;99.90;;;;;;4939616;29;20035;-73
2024/02/24 05:52:25;;;;;;;3.55;2.00;;;6.10;99.90;;;;;;4945310;29;20050;-73
2024/02/24 05:54:50;;;;;;;3.65;1.90;;;6.10;99.90;;;;;;4948264;29;20114;-73
2024/02/24 05:57:16;;;;;;;2.83;2.00;;;6.10;99.90;;;;;;4942921;29;20569;-73
2024/02/24 05:59:42;;;;;;;4.57;2.10;;;6.10;99.90;;;;;;4949847;29;20058;-73
2024/02/24 06:02:07;;;;;;;5.53;2.00;;;6.10;99.90;;;;;;4938420;29;20142;-73
2024/02/24 06:04:33;;;;;;;3.00;1.90;;;6.10;99.90;;;;;;4944620;29;20045;-74
2024/02/24 06:06:59;;;;;;;4.50;2.05;;;6.20;99.90;;;;;;4943567;29;20046;-73
2024/02/24 06:09:25;;;;;;;5.38;2.30;;;6.20;99.90;;;;;;4943478;29;20457;-73
2024/02/24 06:11:51;;;;;;;3.65;2.28;;;6.10;99.90;;;;;;4923061;29;20499;-73
2024/02/24 06:14:17;;;;;;;4.32;2.10;;;6.20;99.90;;;;;;4941529;29;20039;-73
2024/02/24 06:16:42;;;;;;;3.58;2.40;;;6.20;99.90;;;;;;4946498;29;20030;-74
2024/02/24 06:19:08;;;;;;;4.07;2.10;;;6.20;99.90;;;;;;4941681;29;20400;-73
2024/02/24 06:21:34;;;;;;;4.20;2.20;;;6.20;99.90;;;;;;4949975;29;20027;-73
2024/02/24 06:24:00;;;;;;;5.20;1.95;;;6.20;99.90;;;;;;4949248;29;20031;-75
2024/02/24 06:26:25;;;;;;;2.67;1.80;;;6.20;99.90;;;;;;4937738;29;20084;-74
2024/02/24 06:28:51;;;;;;;3.53;1.98;;;6.20;99.90;;;;;;4943675;29;20442;-73
2024/02/24 06:31:18;;;;;;;2.85;1.92;;;6.20;99.90;;;;;;4940194;29;20031;-74
2024/02/24 06:33:43;;;;;;;4.40;2.13;;;6.20;99.90;;;;;;4935941;29;20036;-74
2024/02/24 06:36:09;;;;;;;3.78;2.20;;;6.20;99.90;;;;;;4940656;29;20028;-73
2024/02/24 06:38:35;;;;;;;3.42;1.90;;;6.20;99.90;;;;;;4949887;29;20035;-73
2024/02/24 06:41:00;;;;;;;3.60;2.00;;;6.20;99.90;;;;;;4948862;29;20023;-74
2024/02/24 06:43:26;;;;;;;3.83;2.33;;;6.20;99.90;;;;;;4941283;29;20035;-73
2024/02/24 06:45:52;;;;;;;2.92;1.80;;;6.10;99.90;;;;;;4947734;29;20089;-73
2024/02/24 06:48:18;;;;;;;2.78;1.90;;;6.10;99.90;;;;;;4949119;29;20135;-73
2024/02/24 06:50:43;;;;;;;3.15;1.98;;;6.10;99.90;;;;;;4918045;29;20035;-74
2024/02/24 06:53:09;;;;;;;2.72;1.77;;;6.20;99.90;;;;;;4934093;29;20123;-74
2024/02/24 06:55:35;;;;;;;3.53;1.90;;;6.10;99.90;;;;;;4924600;29;20469;-74
2024/02/24 06:58:00;;;;;;;4.55;2.30;;;6.10;99.90;;;;;;4929952;29;20035;-73
2024/02/24 07:00:26;;;;;;;3.72;2.13;;;6.10;99.90;;;;;;4929651;29;20353;-74
2024/02/24 07:02:53;;;;;;;4.35;2.00;;;6.10;99.90;;;;;;4916681;29;20474;-73
2024/02/24 07:05:19;;;;;;;4.78;2.35;;;6.10;99.90;;;;;;4925988;29;20082;-74
2024/02/24 07:07:45;;;;;;;5.50;2.30;;;6.10;99.90;;;;;;4917771;29;20035;-74
2024/02/24 07:10:10;;;;;;;4.35;2.30;;;6.10;99.90;;;;;;4929695;29;20486;-74
2024/02/24 07:12:36;;;;;;;3.03;2.03;;;6.10;99.90;;;;;;4933816;29;20036;-74
2024/02/24 07:15:02;;;;;;;2.80;1.85;;;6.10;99.90;;;;;;4933654;29;20573;-73
2024/02/24 07:17:28;;;;;;;4.07;1.90;;;6.20;99.90;;;;;;4931061;29;20027;-74
2024/02/24 07:19:54;;;;;;;4.75;2.22;;;6.10;99.90;;;;;;4915558;29;20413;-73
2024/02/24 07:22:20;;;;;;;6.78;3.10;;;6.20;99.90;;;;;;4921600;29;20486;-74
2024/02/24 07:24:46;;;;;;;3.65;1.90;;;6.20;99.90;;;;;;4928947;29;20028;-74
2024/02/24 07:27:12;;;;;;;4.45;2.22;;;6.20;99.90;;;;;;4916474;29;20513;-74
2024/02/24 07:29:38;;;;;;;4.78;2.20;;;6.20;99.90;;;;;;4920877;29;20027;-74
2024/02/24 07:32:04;;;;;;;2.78;2.05;;;6.20;99.90;;;;;;4926455;29;20478;-74
2024/02/24 07:34:30;;;;;;;6.32;2.40;;;6.20;99.90;;;;;;4928880;29;20023;-74
2024/02/24 07:36:57;;;;;;;3.80;2.35;;;6.20;99.90;;;;;;4928451;29;20091;-73
2024/02/24 07:39:23;;;;;;;6.03;2.67;;;6.20;99.90;;;;;;4915773;29;20143;-74
2024/02/24 07:41:49;;;;;;;5.07;2.53;;;6.20;99.90;;;;;;4930865;29;20114;-74
2024/02/24 07:44:14;;;;;;;4.72;2.80;;;6.20;99.90;;;;;;4930882;29;20032;-74
2024/02/24 07:46:40;;;;;;;5.35;3.00;;;6.20;99.90;;;;;;4920755;29;20434;-74
2024/02/24 07:49:06;;;;;;;5.20;2.80;;;6.30;99.90;;;;;;4929761;29;20138;-74
2024/02/24 07:51:31;;;;;;;4.95;2.63;;;6.20;99.90;;;;;;4945722;29;20019;-74
2024/02/24 07:53:57;;;;;;;5.55;2.55;;;6.30;99.90;;;;;;4959324;28;20047;-73
2024/02/24 07:56:24;;;;;;;4.15;2.47;;;6.30;99.90;;;;;;4960151;28;20023;-74
2024/02/24 07:58:50;;;;;;;3.92;2.30;;;6.30;99.90;;;;;;4949942;28;20019;-74
2024/02/24 08:01:17;;;;;;;3.80;2.20;;;6.30;99.90;;;;;;4950480;28;20122;-74
2024/02/24 08:03:43;;;;;;;3.97;2.25;;;6.30;99.90;;;;;;4953152;28;20039;-74
2024/02/24 08:06:09;;;;;;;5.05;2.60;;;6.40;99.90;;;;;;4949331;28;20027;-74
2024/02/24 08:08:36;;;;;;;6.13;2.30;;;6.40;99.90;;;;;;4940059;28;20023;-73
2024/02/24 08:11:03;;;;;;;5.50;2.50;;;6.40;99.90;;;;;;4956031;28;20627;-74
2024/02/24 08:13:29;;;;;;;4.40;2.28;;;6.40;99.90;;;;;;4938820;29;20572;-73
2024/02/24 08:15:55;;;;;;;7.95;3.03;;;6.50;99.90;;;;;;4952938;28;20054;-74
2024/02/24 08:18:22;;;;;;;5.25;2.35;;;6.40;99.90;;;;;;4953421;28;20054;-73
2024/02/24 08:20:48;;;;;;;4.78;2.45;;;6.50;99.90;;;;;;4945579;29;20027;-74
2024/02/24 08:23:14;;;;;;;6.15;2.75;;;6.50;99.90;;;;;;4956515;28;20039;-73
2024/02/24 08:25:40;;;;;;;3.85;1.98;;;6.50;99.90;;;;;;4951024;28;20027;-73
2024/02/24 08:28:06;;;;;;;4.25;2.30;;;6.50;99.90;;;;;;4950853;28;20035;-74
2024/02/24 08:30:32;;;;;;;3.42;1.90;;;6.60;99.90;;;;;;4948900;28;20137;-73
2024/02/24 08:32:58;;;;;;;4.72;2.50;;;6.60;99.90;;;;;;4947322;28;20078;-73
2024/02/24 08:35:24;;;;;;;5.22;2.60;;;6.60;99.90;;;;;;4958354;28;20519;-74
2024/02/24 08:37:50;;;;;;;4.20;2.53;;;6.60;99.90;;;;;;4951656;28;20051;-74
2024/02/24 08:40:15;;;;;;;6.32;2.38;;;6.60;99.90;;;;;;4962599;28;20065;-73
2024/02/24 08:42:41;;;;;;;4.53;2.28;;;6.70;99.90;;;;;;4945613;29;20028;-73
2024/02/24 08:45:07;;;;;;;3.85;2.45;;;6.70;99.90;;;;;;4943993;29;20477;-73
2024/02/24 08:47:33;;;;;;;5.05;2.30;;;6.70;99.90;;;;;;4938419;29;20031;-73
2024/02/24 08:49:59;;;;;;;6.78;3.15;;;6.70;99.90;;;;;;4952271;29;20027;-72
2024/02/24 08:52:25;;;;;;;4.57;2.35;;;6.70;99.90;;;;;;4959462;28;20027;-73
2024/02/24 08:54:50;;;;;;;3.60;2.30;;;6.70;99.90;;;;;;4954330;28;20028;-73
2024/02/24 08:57:16;;;;;;;2.72;1.75;;;6.70;99.90;;;;;;4952744;28;20046;-72
2024/02/24 08:59:42;;;;;;;5.55;2.47;;;6.70;99.90;;;;;;4949762;28;20027;-73
2024/02/24 09:02:07;;;;;;;8.18;2.40;;;6.80;99.90;;;;;;4960931;28;20035;-73
2024/02/24 09:04:37;;;;;;;4.15;2.40;;;6.80;99.90;;;;;;4952840;28;20501;-73
2024/02/24 09:07:03;;;;;;;4.50;2.10;;;6.90;99.90;;;;;;4951280;29;20031;-73
2024/02/24 09:09:29;;;;;;;6.00;2.30;;;6.90;99.90;;;;;;4950741;29;20030;-73
2024/02/24 09:11:54;;;;;;;5.32;2.60;;;6.90;99.90;;;;;;4933476;29;20042;-73
2024/02/24 09:14:20;;;;;;;4.43;2.30;;;6.90;99.90;;;;;;4940491;29;20036;-73
2024/02/24 09:16:46;;;;;;;3.92;2.47;;;6.90;99.90;;;;;;4947342;29;20625;-73
2024/02/24 09:19:12;;;;;;;4.50;2.50;;;6.90;99.90;;;;;;4946306;28;20049;-73
2024/02/24 09:21:37;;;;;;;4.82;2.28;;;6.90;99.90;;;;;;4919448;29;20490;-73
2024/02/24 09:24:03;;;;;;;4.15;2.00;;;6.90;99.90;;;;;;4944022;29;20038;-73
2024/02/24 09:26:29;;;;;;;2.50;1.65;;;6.90;99.90;;;;;;4950290;29;20019;-73
2024/02/24 09:28:55;;;;;;;3.00;1.70;;;6.90;99.90;;;;;;4932822;29;20023;-73
2024/02/24 09:31:20;;;;;;;4.72;2.00;;;6.90;99.90;;;;;;4953105;28;20102;-73
2024/02/24 09:33:54;;;;;;;3.47;1.83;;;6.90;99.90;;;;;;4951678;28;20035;-73
2024/02/24 09:36:19;;;;;;;4.03;1.60;;;6.80;99.90;;;;;;4950373;29;20028;-74
2024/02/24 09:38:45;;;;;;;3.28;1.25;;;6.80;99.90;;;;;;4950234;29;20110;-74
2024/02/24 09:41:11;;;;;;;1.83;1.20;;;6.80;99.90;;;;;;4947878;28;20027;-73
2024/02/24 09:43:38;;;;;;;2.25;1.20;;;6.70;99.90;;;;;;4954575;28;20035;-74
2024/02/24 09:46:08;;;;;;;1.75;1.40;;;6.60;99.90;;;;;;4951944;28;20019;-73
2024/02/24 09:48:34;;;;;;;2.25;1.38;;;6.50;99.90;;;;;;4952023;28;20531;-73
2024/02/24 09:51:00;;;;;;;3.83;1.75;;;6.50;99.90;;;;;;4936054;28;20054;-73
2024/02/24 09:53:25;;;;;;;4.18;2.35;;;6.40;99.90;;;;;;4959083;28;20118;-73
2024/02/24 09:55:53;;;;;;;3.20;1.80;;;6.40;99.90;;;;;;4964825;28;20110;-74
2024/02/24 09:58:21;;;;;;;3.20;2.10;;;6.40;99.90;;;;;;4962386;28;20027;-74
2024/02/24 10:00:56;;;;;;;4.63;2.45;;;6.40;99.90;;;;;;4967313;28;20019;-74
2024/02/24 10:03:22;;;;;;;4.90;2.75;;;6.30;99.90;;;;;;4949492;28;20085;-74
2024/02/24 10:05:51;;;;;;;5.72;2.65;;;6.30;99.90;;;;;;4949538;28;20497;-74
2024/02/24 10:08:17;;;;;;;5.13;3.00;;;6.30;99.90;;;;;;4935895;28;20035;-73
2024/02/24 10:10:43;;;;;;;4.90;2.70;;;6.30;99.90;;;;;;4950957;28;20020;-74
2024/02/24 10:13:09;;;;;;;6.32;3.10;;;6.20;99.90;;;;;;4961326;28;20125;-73
2024/02/24 10:15:36;;;;;;;4.90;2.90;;;6.20;99.90;;;;;;4967363;28;20457;-74
2024/02/24 10:18:02;;;;;;;5.78;3.45;;;6.10;99.90;;;;;;4970666;28;20129;-73
2024/02/24 10:20:29;;;;;;;6.38;3.17;;;6.10;99.90;;;;;;4938014;28;20054;-74
2024/02/24 10:22:55;;;;;;;4.38;3.15;;;6.00;99.90;;;;;;4943713;28;20096;-74
2024/02/24 10:25:22;;;;;;;5.78;3.60;;;6.00;99.90;;;;;;4963688;28;20113;-73
2024/02/24 10:27:48;;;;;;;5.10;3.30;;;6.00;99.90;;;;;;4965199;28;20035;-73
2024/02/24 10:30:14;;;;;;;7.13;3.55;;;6.00;99.90;;;;;;4965076;28;20027;-73
2024/02/24 10:32:41;;;;;;;5.20;3.33;;;6.00;99.90;;;;;;4960979;28;20520;-73
2024/02/24 10:35:08;;;;;;;5.70;3.45;;;6.00;99.90;;;;;;4950831;28;20090;-74
2024/02/24 10:37:34;;;;;;;5.30;3.10;;;5.90;99.90;;;;;;4930336;29;20031;-73
2024/02/24 10:40:08;;;;;;;5.95;3.00;;;6.00;99.90;;;;;;4929694;29;20893;-73
2024/02/24 10:42:34;;;;;;;7.18;3.92;;;6.00;99.90;;;;;;4935704;29;20080;-73
2024/02/24 10:45:01;;;;;;;6.95;4.03;;;6.00;99.90;;;;;;4958608;28;20023;-73
2024/02/24 10:47:28;;;;;;;7.05;4.30;;;6.10;99.90;;;;;;4961711;28;20031;-74
2024/02/24 10:49:53;;;;;;;7.82;3.80;;;6.10;99.90;;;;;;4954906;28;20026;-74
2024/02/24 10:52:21;;;;;;;6.40;3.83;;;6.20;99.90;;;;;;4962548;28;20503;-72
2024/02/24 10:54:49;;;;;;;5.97;3.75;;;6.30;99.90;;;;;;4927233;29;20032;-73
2024/02/24 10:57:18;;;;;;;5.40;3.25;;;6.30;99.90;;;;;;4934384;28;20040;-73
2024/02/24 10:59:43;;;;;;;5.15;3.40;;;6.30;99.90;;;;;;4937169;29;20046;-74
2024/02/24 11:02:11;;;;;;;6.15;3.92;;;6.30;99.90;;;;;;4927433;29;20396;-74
2024/02/24 11:04:38;;;;;;;6.63;3.42;;;6.30;99.90;;;;;;4927395;29;20133;-73
2024/02/24 11:07:18;;;;;;;5.72;4.10;;;6.30;99.90;;;;;;4923782;29;20023;-73
2024/02/24 11:09:48;;;;;;;6.05;3.33;;;6.30;99.90;;;;;;4935469;29;20042;-72
2024/02/24 11:12:14;;;;;;;4.72;3.20;;;6.30;99.90;;;;;;4927154;29;20028;-74
2024/02/24 11:14:42;;;;;;;4.40;3.10;;;6.40;99.90;;;;;;4940227;29;20027;-74
2024/02/24 11:17:10;;;;;;;5.47;2.90;;;6.30;99.90;;;;;;4922331;29;20032;-73
2024/02/24 11:19:43;;;;;;;7.13;3.03;;;6.50;99.90;;;;;;4927891;29;20202;-72
2024/02/24 11:22:27;;;;;;;5.82;2.97;;;6.60;99.90;;;;;;4925302;29;20107;-74
2024/02/24 11:25:20;;;;;;;4.68;2.70;;;6.70;99.90;;;;;;4935344;29;20030;-73
2024/02/24 11:27:55;;;;;;;4.72;2.65;;;6.70;99.90;;;;;;4906074;29;20055;-73
2024/02/24 11:30:37;;;;;;;6.40;2.67;;;6.80;99.90;;;;;;4925932;29;20043;-73
2024/02/24 11:33:37;;;;;;;4.50;2.33;;;6.90;99.90;;;;;;4931679;29;20040;-73
2024/02/24 11:36:04;;;;;;;6.72;2.75;;;7.00;99.90;;;;;;4923897;29;20038;-72
2024/02/24 11:38:32;;;;;;;3.63;2.10;;;7.20;99.90;;;;;;4939662;29;20469;-73
2024/02/24 11:41:03;;;;;;;4.95;2.47;;;7.30;99.90;;;;;;4932963;29;20114;-74
2024/02/24 11:43:29;;;;;;;4.40;2.00;;;7.40;99.90;;;;;;4913262;29;20040;-74
2024/02/24 11:45:55;;;;;;;4.45;2.13;;;7.30;99.90;;;;;;4929308;29;20024;-74
2024/02/24 11:48:22;;;;;;;4.03;1.45;;;7.30;99.90;;;;;;4929407;29;20090;-73
2024/02/24 11:50:48;;;;;;;4.45;1.73;;;7.30;99.90;;;;;;4935403;29;20159;-73
2024/02/24 11:53:16;;;;;;;6.72;1.77;;;7.30;99.90;;;;;;4941687;29;20293;-74
2024/02/24 11:55:42;;;;;;;4.25;1.77;;;7.30;99.90;;;;;;4948312;29;20027;-74
2024/02/24 11:58:09;;;;;;;3.88;1.80;;;7.30;99.90;;;;;;4961837;28;20034;-73
2024/02/24 12:00:38;;;;;;;4.20;1.60;;;7.30;99.90;;;;;;4956789;28;20031;-74
2024/02/24 12:03:09;;;;;;;7.05;1.65;;;7.30;99.90;;;;;;4949695;28;20035;-75
2024/02/24 12:05:34;;;;;;;4.30;1.50;;;7.40;99.90;;;;;;4947270;28;20513;-73
2024/02/24 12:08:04;;;;;;;3.05;1.30;;;7.40;99.90;;;;;;4947688;28;20049;-74
2024/02/24 12:10:37;;;;;;;4.53;1.33;;;7.40;99.90;;;;;;4940671;28;20496;-73
2024/02/24 12:13:09;;;;;;;3.05;1.25;;;7.40;99.90;;;;;;4968563;28;20081;-74
2024/02/24 12:15:37;;;;;;;3.10;1.35;;;7.40;99.90;;;;;;4947613;29;20032;-74
2024/02/24 12:18:07;;;;;;;2.70;1.05;;;7.50;99.90;;;;;;4949545;28;20058;-74
2024/02/24 12:20:50;;;;;;;4.45;1.55;;;7.50;99.90;;;;;;4933920;29;20027;-74
2024/02/24 12:23:16;;;;;;;4.47;1.55;;;7.50;99.90;;;;;;4945561;28;20074;-73
2024/02/24 12:25:46;;;;;;;3.38;1.50;;;7.50;99.90;;;;;;4957949;28;20039;-73
2024/02/24 12:28:12;;;;;;;5.82;1.70;;;7.50;99.90;;;;;;4958163;28;20405;-74
2024/02/24 12:30:42;;;;;;;2.45;1.40;;;7.50;99.90;;;;;;4958668;28;20039;-73
2024/02/24 12:33:13;;;;;;;2.30;1.30;;;7.40;99.90;;;;;;4957977;28;20035;-73
2024/02/24 12:35:40;;;;;;;4.93;1.70;;;7.40;99.90;;;;;;4948643;28;20031;-74
2024/02/24 12:38:06;;;;;;;3.92;1.70;;;7.40;99.90;;;;;;4946692;28;20413;-74
2024/02/24 12:40:34;;;;;;;3.15;1.45;;;7.40;99.90;;;;;;4944501;28;20427;-74
2024/02/24 12:43:01;;;;;;;3.15;1.45;;;7.30;99.90;;;;;;4957339;28;20039;-73
2024/02/24 12:45:27;;;;;;;5.35;1.88;;;7.30;99.90;;;;;;4940682;28;20524;-74
2024/02/24 12:47:53;;;;;;;4.35;1.30;;;7.30;99.90;;;;;;4953601;28;20023;-73
2024/02/24 12:50:24;;;;;;;3.38;1.60;;;7.20;99.90;;;;;;4965616;28;20610;-74
2024/02/24 12:52:51;;;;;;;4.57;1.85;;;7.20;99.90;;;;;;4935007;28;20126;-74
2024/02/24 12:55:17;;;;;;;5.55;1.73;;;7.20;99.90;;;;;;4958850;28;20054;-73